Time;durP1;ratioP1;P1;durP2;ratioP2;P2;SDS_P1;SDS_P2;PMS_P1;PMS_P2;Temp;Humidity;BMP_temperature;BMP_pressure;BME280_temperature;BME280_humidity;BME280_pressure;Samples;Min_cycle;Max_cycle;Signal;HPM_P1;HPM_P2
2021/12/19 00:00:55;;;;;;;134.57;41.70;;;;;;;;;;5035012;28;20205;-65
2021/12/19 00:11:07;;;;;;;95.63;34.33;;;;;;;;;;5035297;28;20201;-65
2021/12/19 00:13:34;;;;;;;128.77;39.77;;;;;;;;;;5035202;28;20192;-65
2021/12/19 00:16:02;;;;;;;124.57;40.03;;;;;;;;;;5034891;28;20682;-65
2021/12/19 00:18:30;;;;;;;95.50;32.77;;;;;;;;;;5034778;28;20648;-65
2021/12/19 00:20:57;;;;;;;133.33;40.70;;;;;;;;;;5035009;28;20203;-65
2021/12/19 00:23:39;;;;;;;122.73;40.13;;;;;;;;;;5034873;28;20192;-65
2021/12/19 00:26:08;;;;;;;133.53;41.53;;;;;;;;;;5034979;28;20224;-65
2021/12/19 00:28:36;;;;;;;135.43;42.57;;;;;;;;;;5034669;28;20299;-65
2021/12/19 00:31:04;;;;;;;109.73;35.00;;;;;;;;;;5034695;28;20211;-65
2021/12/19 00:33:31;;;;;;;101.07;34.60;;;;;;;;;;5034646;28;20299;-65
2021/12/19 00:35:59;;;;;;;72.07;28.07;;;;;;;;;;5034818;28;20214;-65
2021/12/19 00:38:26;;;;;;;51.23;20.03;;;;;;;;;;5034612;28;20197;-65
2021/12/19 00:40:54;;;;;;;103.47;36.87;;;;;;;;;;5034432;28;20204;-65
2021/12/19 00:43:34;;;;;;;99.70;36.10;;;;;;;;;;5034688;28;20267;-65
2021/12/19 00:46:07;;;;;;;78.87;29.13;;;;;;;;;;5034280;28;20640;-65
2021/12/19 00:48:41;;;;;;;94.27;36.40;;;;;;;;;;5034156;28;20185;-65
2021/12/19 00:51:10;;;;;;;54.80;23.63;;;;;;;;;;5034308;28;20636;-65
2021/12/19 00:53:38;;;;;;;82.43;32.13;;;;;;;;;;5034238;28;20197;-65
2021/12/19 00:56:05;;;;;;;76.53;32.73;;;;;;;;;;5034395;28;20246;-65
2021/12/19 00:58:33;;;;;;;96.57;37.57;;;;;;;;;;5034200;28;20205;-65
2021/12/19 01:01:02;;;;;;;95.20;37.50;;;;;;;;;;5034387;28;20208;-65
2021/12/19 01:03:29;;;;;;;80.60;32.50;;;;;;;;;;5034313;28;20634;-65
2021/12/19 01:05:57;;;;;;;94.93;35.37;;;;;;;;;;5033971;28;20558;-65
2021/12/19 01:08:25;;;;;;;85.23;34.60;;;;;;;;;;5034057;28;20211;-65
2021/12/19 01:10:53;;;;;;;87.93;34.17;;;;;;;;;;5032968;28;20726;-65
2021/12/19 01:13:20;;;;;;;80.47;33.50;;;;;;;;;;5033898;28;20246;-65
2021/12/19 01:15:48;;;;;;;74.33;31.10;;;;;;;;;;5033869;28;20299;-65
2021/12/19 01:18:15;;;;;;;34.57;15.77;;;;;;;;;;5034120;28;20208;-65
2021/12/19 01:20:42;;;;;;;68.67;29.53;;;;;;;;;;5033540;28;20227;-65
2021/12/19 01:23:11;;;;;;;81.10;35.37;;;;;;;;;;5033914;28;20215;-65
2021/12/19 01:25:38;;;;;;;87.43;36.83;;;;;;;;;;5032676;28;20282;-65
2021/12/19 01:28:06;;;;;;;60.33;29.30;;;;;;;;;;5033653;28;20224;-65
2021/12/19 01:30:33;;;;;;;59.23;29.90;;;;;;;;;;5033292;28;20683;-65
2021/12/19 01:33:00;;;;;;;69.07;31.07;;;;;;;;;;5033339;28;20203;-65
2021/12/19 01:35:28;;;;;;;68.20;30.30;;;;;;;;;;5032518;28;20200;-65
2021/12/19 01:37:55;;;;;;;76.57;32.67;;;;;;;;;;5033657;28;20209;-65
2021/12/19 01:40:23;;;;;;;65.10;29.47;;;;;;;;;;5033299;28;20243;-65
2021/12/19 01:42:54;;;;;;;68.03;31.63;;;;;;;;;;5033531;28;20565;-65
2021/12/19 01:45:34;;;;;;;80.87;33.93;;;;;;;;;;5033311;28;20235;-65
2021/12/19 01:48:06;;;;;;;57.60;27.60;;;;;;;;;;5033283;28;20181;-65
2021/12/19 01:50:33;;;;;;;51.03;24.00;;;;;;;;;;5032898;28;20241;-65
2021/12/19 01:53:02;;;;;;;50.63;23.73;;;;;;;;;;5033136;28;20319;-65
2021/12/19 01:55:29;;;;;;;58.17;27.80;;;;;;;;;;5033343;28;20201;-65
2021/12/19 01:57:57;;;;;;;60.63;28.57;;;;;;;;;;5033367;28;20205;-65
2021/12/19 02:00:30;;;;;;;57.30;26.73;;;;;;;;;;5032880;28;20607;-65
2021/12/19 02:02:58;;;;;;;45.33;23.73;;;;;;;;;;5033106;28;20192;-65
2021/12/19 02:05:27;;;;;;;32.10;20.03;;;;;;;;;;5031984;28;20205;-65
2021/12/19 02:07:55;;;;;;;35.77;22.10;;;;;;;;;;5033105;28;20287;-65
2021/12/19 02:10:25;;;;;;;35.20;20.87;;;;;;;;;;5032920;28;20240;-65
2021/12/19 02:12:53;;;;;;;35.20;20.70;;;;;;;;;;5032004;28;20189;-65
2021/12/19 02:15:22;;;;;;;38.07;21.60;;;;;;;;;;5032962;28;20204;-65
2021/12/19 02:17:52;;;;;;;17.37;9.67;;;;;;;;;;5032787;28;20659;-65
2021/12/19 02:20:20;;;;;;;34.97;19.70;;;;;;;;;;5033007;28;20617;-65
2021/12/19 02:22:48;;;;;;;25.23;13.10;;;;;;;;;;5032677;28;20197;-66
2021/12/19 02:25:16;;;;;;;30.90;18.73;;;;;;;;;;5033154;28;20212;-65
2021/12/19 02:27:43;;;;;;;44.33;22.50;;;;;;;;;;5032897;28;20196;-65
2021/12/19 02:30:12;;;;;;;47.57;23.97;;;;;;;;;;5032639;28;20626;-65
2021/12/19 02:32:41;;;;;;;37.87;21.73;;;;;;;;;;5032728;28;20291;-65
2021/12/19 02:35:13;;;;;;;43.27;22.40;;;;;;;;;;5032577;28;20204;-65
2021/12/19 02:48:14;;;;;;;23.63;15.40;;;;;;;;;;5032461;28;20192;-65
2021/12/19 02:50:49;;;;;;;20.00;13.00;;;;;;;;;;5032196;28;20343;-65
2021/12/19 02:53:32;;;;;;;28.77;16.67;;;;;;;;;;5032851;28;20193;-65
2021/12/19 02:56:01;;;;;;;28.30;16.77;;;;;;;;;;5032351;28;20644;-65
2021/12/19 02:58:29;;;;;;;22.53;14.80;;;;;;;;;;5032513;28;20284;-65
2021/12/19 03:00:58;;;;;;;34.93;17.83;;;;;;;;;;5032589;28;20201;-65
2021/12/19 03:03:25;;;;;;;33.93;18.43;;;;;;;;;;5032309;28;20668;-65
2021/12/19 03:05:53;;;;;;;32.27;17.53;;;;;;;;;;5032571;28;20200;-65
2021/12/19 03:08:20;;;;;;;19.47;11.10;;;;;;;;;;5032380;28;20196;-65
2021/12/19 03:18:41;;;;;;;25.03;14.43;;;;;;;;;;5032301;28;20200;-65
2021/12/19 03:21:12;;;;;;;24.93;14.67;;;;;;;;;;5032300;28;20699;-65
2021/12/19 03:23:40;;;;;;;18.70;11.43;;;;;;;;;;5032803;28;20327;-65
2021/12/19 03:26:08;;;;;;;13.80;9.87;;;;;;;;;;5031241;28;20255;-65
2021/12/19 03:28:35;;;;;;;12.57;7.60;;;;;;;;;;5031042;28;20201;-65
2021/12/19 03:31:04;;;;;;;17.87;9.57;;;;;;;;;;5032090;28;20228;-65
2021/12/19 03:33:32;;;;;;;16.47;10.73;;;;;;;;;;5032015;28;20561;-65
2021/12/19 03:35:59;;;;;;;14.17;9.13;;;;;;;;;;5035683;28;20201;-65
2021/12/19 03:38:27;;;;;;;13.73;8.17;;;;;;;;;;5035714;28;20209;-65
2021/12/19 03:43:36;;;;;;;13.50;8.57;;;;;;;;;;5035652;28;20196;-65
2021/12/19 03:46:03;;;;;;;12.83;8.30;;;;;;;;;;5035520;28;20197;-65
2021/12/19 03:48:30;;;;;;;21.50;11.80;;;;;;;;;;5035323;28;20296;-65
2021/12/19 03:50:58;;;;;;;10.63;6.43;;;;;;;;;;5035472;28;20572;-65
2021/12/19 03:53:26;;;;;;;14.03;9.47;;;;;;;;;;5035625;28;20231;-65
2021/12/19 03:55:53;;;;;;;12.97;9.03;;;;;;;;;;5035569;28;20209;-65
2021/12/19 03:58:21;;;;;;;10.97;7.30;;;;;;;;;;5035380;28;20205;-65
2021/12/19 04:00:49;;;;;;;9.23;6.27;;;;;;;;;;5035735;28;20207;-65
2021/12/19 04:03:21;;;;;;;7.80;6.03;;;;;;;;;;5034459;28;20209;-66
2021/12/19 04:05:50;;;;;;;8.80;5.00;;;;;;;;;;5035577;28;20196;-65
2021/12/19 04:08:19;;;;;;;9.10;6.07;;;;;;;;;;5035146;28;20207;-65
2021/12/19 04:10:47;;;;;;;8.93;6.37;;;;;;;;;;5035120;28;20220;-65
2021/12/19 04:13:16;;;;;;;10.13;7.10;;;;;;;;;;5035242;28;20223;-65
2021/12/19 04:15:44;;;;;;;13.13;8.67;;;;;;;;;;5035268;28;20200;-65
2021/12/19 04:18:11;;;;;;;13.20;7.17;;;;;;;;;;5034851;28;20707;-65
2021/12/19 04:20:39;;;;;;;13.93;8.53;;;;;;;;;;5035029;28;20205;-66
2021/12/19 04:23:06;;;;;;;11.30;7.50;;;;;;;;;;5033652;28;20596;-65
2021/12/19 04:25:34;;;;;;;6.70;4.23;;;;;;;;;;5034999;28;20227;-65
2021/12/19 04:28:01;;;;;;;9.70;6.90;;;;;;;;;;5034723;28;20682;-65
2021/12/19 04:30:29;;;;;;;6.90;5.50;;;;;;;;;;5034715;28;20229;-65
2021/12/19 04:33:09;;;;;;;13.27;7.73;;;;;;;;;;5034758;28;20196;-65
2021/12/19 04:35:41;;;;;;;5.93;3.93;;;;;;;;;;5034577;28;20679;-65
2021/12/19 04:57:19;;;;;;;8.13;5.53;;;;;;;;;;5034378;28;20193;-65
2021/12/19 05:00:02;;;;;;;8.93;5.47;;;;;;;;;;5034501;28;20251;-65
2021/12/19 05:15:58;;;;;;;6.40;4.60;;;;;;;;;;5034110;28;20247;-65
2021/12/19 05:18:29;;;;;;;6.93;5.13;;;;;;;;;;5033516;28;20566;-65
2021/12/19 05:21:19;;;;;;;5.97;4.40;;;;;;;;;;5034046;28;20201;-65
2021/12/19 05:26:16;;;;;;;5.63;3.63;;;;;;;;;;5033611;28;20560;-65
2021/12/19 05:28:44;;;;;;;6.27;4.73;;;;;;;;;;5016696;28;20538;-65
2021/12/19 05:31:11;;;;;;;7.30;4.90;;;;;;;;;;5033789;28;20228;-66
2021/12/19 05:33:38;;;;;;;25.63;9.27;;;;;;;;;;5033408;28;20299;-65
2021/12/19 05:44:11;;;;;;;8.37;5.17;;;;;;;;;;5033711;28;20208;-66
2021/12/19 05:46:58;;;;;;;9.97;5.30;;;;;;;;;;5049806;28;20604;-66
2021/12/19 05:49:27;;;;;;;5.00;3.20;;;;;;;;;;5049169;28;20220;-66
2021/12/19 05:51:54;;;;;;;11.17;5.60;;;;;;;;;;5048586;28;20220;-66
2021/12/19 05:54:21;;;;;;;8.93;4.53;;;;;;;;;;5051607;28;20295;-66
2021/12/19 05:56:49;;;;;;;7.60;4.53;;;;;;;;;;5052384;28;20196;-66
2021/12/19 05:59:16;;;;;;;4.77;3.67;;;;;;;;;;5048805;28;20196;-66
2021/12/19 06:01:43;;;;;;;12.77;6.87;;;;;;;;;;5048036;28;20231;-66
2021/12/19 06:04:10;;;;;;;11.60;6.77;;;;;;;;;;5049260;28;20204;-67
2021/12/19 06:06:38;;;;;;;9.90;5.43;;;;;;;;;;5049640;28;20658;-66
2021/12/19 06:09:05;;;;;;;11.20;7.00;;;;;;;;;;5050366;28;20294;-66
2021/12/19 06:11:33;;;;;;;12.07;6.77;;;;;;;;;;5047756;28;20216;-66
2021/12/19 06:14:01;;;;;;;8.43;5.90;;;;;;;;;;5047980;28;20307;-66
2021/12/19 06:16:29;;;;;;;8.37;5.87;;;;;;;;;;5048685;28;20651;-66
2021/12/19 06:18:57;;;;;;;10.20;6.23;;;;;;;;;;5050990;28;20195;-66
2021/12/19 06:21:24;;;;;;;8.63;3.70;;;;;;;;;;5047169;28;20235;-66
2021/12/19 06:23:51;;;;;;;8.67;5.80;;;;;;;;;;5046593;28;20204;-66
2021/12/19 06:26:19;;;;;;;4.13;3.50;;;;;;;;;;5033254;28;20578;-66
2021/12/19 06:28:46;;;;;;;6.03;4.63;;;;;;;;;;5032432;28;20737;-66
2021/12/19 06:31:13;;;;;;;9.17;5.87;;;;;;;;;;5032608;28;20319;-66
2021/12/19 06:33:40;;;;;;;7.67;5.77;;;;;;;;;;5032416;28;20200;-66
2021/12/19 06:36:09;;;;;;;10.67;5.60;;;;;;;;;;5032315;28;20613;-66
2021/12/19 06:38:36;;;;;;;23.40;11.43;;;;;;;;;;5032404;28;20201;-66
2021/12/19 06:41:03;;;;;;;40.87;13.63;;;;;;;;;;5049880;28;20196;-66
2021/12/19 06:43:32;;;;;;;14.07;7.77;;;;;;;;;;5052492;28;20557;-66
2021/12/19 06:45:59;;;;;;;12.07;6.83;;;;;;;;;;5051046;28;20196;-66
2021/12/19 06:48:27;;;;;;;9.43;6.13;;;;;;;;;;5052032;28;20204;-66
2021/12/19 06:50:55;;;;;;;8.97;6.17;;;;;;;;;;5048371;28;20563;-64
2021/12/19 06:53:23;;;;;;;6.43;4.83;;;;;;;;;;5032149;28;20255;-66
2021/12/19 06:55:50;;;;;;;34.53;11.17;;;;;;;;;;5047499;28;20207;-66
2021/12/19 06:58:17;;;;;;;14.90;7.17;;;;;;;;;;5052427;28;20258;-67
2021/12/19 07:00:45;;;;;;;8.93;6.10;;;;;;;;;;5052200;28;20271;-66
2021/12/19 07:03:15;;;;;;;10.03;5.77;;;;;;;;;;5044897;28;20707;-64
2021/12/19 07:05:43;;;;;;;10.23;5.33;;;;;;;;;;5063767;28;20875;-66
2021/12/19 07:08:10;;;;;;;9.63;5.63;;;;;;;;;;5061664;28;20230;-67
2021/12/19 07:10:38;;;;;;;11.03;5.93;;;;;;;;;;5063960;28;20230;-67
2021/12/19 07:13:05;;;;;;;7.00;5.33;;;;;;;;;;5062201;28;20383;-65
2021/12/19 07:15:32;;;;;;;10.33;6.67;;;;;;;;;;5062603;28;20710;-66
2021/12/19 07:18:04;;;;;;;13.90;7.77;;;;;;;;;;5065011;28;20236;-66
2021/12/19 07:20:31;;;;;;;10.23;6.40;;;;;;;;;;5055071;28;20228;-68
2021/12/19 07:22:59;;;;;;;12.77;9.50;;;;;;;;;;5054997;28;20238;-69
2021/12/19 07:25:26;;;;;;;9.27;6.27;;;;;;;;;;5055013;28;20226;-68
2021/12/19 07:27:53;;;;;;;8.57;5.80;;;;;;;;;;5054687;28;20702;-63
2021/12/19 07:30:25;;;;;;;7.10;5.53;;;;;;;;;;5053540;28;20250;-67
2021/12/19 07:32:54;;;;;;;10.87;7.40;;;;;;;;;;5049190;28;20228;-65
2021/12/19 07:35:22;;;;;;;8.93;6.03;;;;;;;;;;5034908;28;20311;-67
2021/12/19 07:37:51;;;;;;;8.17;7.17;;;;;;;;;;5034527;28;20773;-65
2021/12/19 07:40:20;;;;;;;11.00;8.53;;;;;;;;;;5034900;28;20239;-66
2021/12/19 07:42:49;;;;;;;7.37;5.60;;;;;;;;;;5034774;28;20239;-66
2021/12/19 07:45:16;;;;;;;8.77;5.67;;;;;;;;;;5034598;28;20227;-67
2021/12/19 07:47:44;;;;;;;9.33;7.33;;;;;;;;;;5046576;28;20227;-67
2021/12/19 07:50:13;;;;;;;15.37;9.67;;;;;;;;;;5073799;28;20262;-66
2021/12/19 07:52:40;;;;;;;10.77;7.90;;;;;;;;;;5074345;28;20589;-66
2021/12/19 07:55:08;;;;;;;12.87;8.30;;;;;;;;;;5073975;28;20234;-67
2021/12/19 07:57:35;;;;;;;12.93;8.23;;;;;;;;;;5074389;28;20234;-66
2021/12/19 08:00:06;;;;;;;12.33;7.40;;;;;;;;;;5073996;28;20223;-66
2021/12/19 08:02:40;;;;;;;15.70;8.03;;;;;;;;;;5073676;28;20869;-65
2021/12/19 08:05:08;;;;;;;12.93;8.93;;;;;;;;;;5073781;28;20254;-66
2021/12/19 08:07:38;;;;;;;10.27;7.57;;;;;;;;;;5074177;28;20227;-66
2021/12/19 08:12:37;;;;;;;15.70;9.60;;;;;;;;;;5074119;28;20310;-66
2021/12/19 08:15:06;;;;;;;13.10;8.40;;;;;;;;;;5073584;28;20223;-67
2021/12/19 08:17:34;;;;;;;16.83;9.67;;;;;;;;;;5068281;28;20725;-66
2021/12/19 08:20:04;;;;;;;9.93;5.27;;;;;;;;;;5053349;28;20274;-64
2021/12/19 08:22:32;;;;;;;15.77;9.10;;;;;;;;;;5054067;28;20310;-64
2021/12/19 08:25:00;;;;;;;11.40;7.67;;;;;;;;;;5053675;28;20227;-64
2021/12/19 08:27:27;;;;;;;8.00;6.20;;;;;;;;;;5053736;28;20228;-64
2021/12/19 08:29:55;;;;;;;9.87;7.03;;;;;;;;;;5053752;28;20236;-64
2021/12/19 08:32:23;;;;;;;16.00;9.13;;;;;;;;;;5052956;28;20239;-64
2021/12/19 08:34:51;;;;;;;11.57;8.17;;;;;;;;;;5053485;28;20232;-65
2021/12/19 08:37:19;;;;;;;12.47;7.63;;;;;;;;;;5053749;28;20228;-65
2021/12/19 08:39:46;;;;;;;17.57;10.67;;;;;;;;;;5053679;28;20228;-67
2021/12/19 08:42:14;;;;;;;10.40;6.67;;;;;;;;;;5053530;28;20223;-65
2021/12/19 08:44:42;;;;;;;22.90;15.13;;;;;;;;;;5051972;28;20242;-65
2021/12/19 08:47:10;;;;;;;18.27;11.10;;;;;;;;;;5054129;28;20232;-66
2021/12/19 08:49:37;;;;;;;9.53;6.23;;;;;;;;;;5073159;28;20237;-66
2021/12/19 08:52:04;;;;;;;14.03;10.83;;;;;;;;;;5073262;28;20281;-68
2021/12/19 08:54:32;;;;;;;12.00;8.00;;;;;;;;;;5073079;28;20239;-68
2021/12/19 08:56:59;;;;;;;7.07;4.77;;;;;;;;;;5073360;28;20232;-68
2021/12/19 08:59:29;;;;;;;7.97;5.70;;;;;;;;;;5073006;28;20330;-69
2021/12/19 09:02:01;;;;;;;11.30;8.83;;;;;;;;;;5072892;28;20227;-68
2021/12/19 09:04:30;;;;;;;18.43;8.97;;;;;;;;;;5072910;28;20223;-69
2021/12/19 09:06:59;;;;;;;15.33;7.07;;;;;;;;;;5073335;28;20250;-68
2021/12/19 09:09:26;;;;;;;7.70;4.93;;;;;;;;;;5072694;28;20237;-68
2021/12/19 09:11:53;;;;;;;13.93;8.53;;;;;;;;;;5073252;28;20246;-67
2021/12/19 09:14:21;;;;;;;15.23;9.10;;;;;;;;;;5072403;28;20638;-68
2021/12/19 09:16:48;;;;;;;18.80;11.93;;;;;;;;;;5072078;28;20231;-67
2021/12/19 09:19:15;;;;;;;20.13;11.63;;;;;;;;;;5053616;28;20278;-66
2021/12/19 09:21:42;;;;;;;14.40;10.20;;;;;;;;;;5052601;28;20224;-73
2021/12/19 09:24:10;;;;;;;8.63;5.10;;;;;;;;;;5034854;28;20228;-73
2021/12/19 09:26:37;;;;;;;15.97;9.73;;;;;;;;;;5052418;28;20235;-68
2021/12/19 09:29:05;;;;;;;11.23;7.87;;;;;;;;;;5052986;28;20301;-69
2021/12/19 09:31:32;;;;;;;16.63;8.60;;;;;;;;;;5051807;28;20231;-71
2021/12/19 09:33:59;;;;;;;19.33;9.17;;;;;;;;;;5051121;28;20285;-70
2021/12/19 09:36:28;;;;;;;24.57;11.77;;;;;;;;;;5052094;28;20231;-66
2021/12/19 09:38:55;;;;;;;23.40;9.73;;;;;;;;;;5052541;28;20258;-67
2021/12/19 09:41:33;;;;;;;18.23;9.50;;;;;;;;;;5052080;28;20258;-68
2021/12/19 09:44:03;;;;;;;13.73;4.67;;;;;;;;;;5052602;28;20565;-68
2021/12/19 09:46:35;;;;;;;12.27;4.70;;;;;;;;;;5051597;28;20318;-70
2021/12/19 09:49:05;;;;;;;9.77;4.90;;;;;;;;;;5052756;28;20289;-70
2021/12/19 09:51:33;;;;;;;7.60;4.13;;;;;;;;;;5053388;28;20282;-70
2021/12/19 09:54:01;;;;;;;6.73;3.97;;;;;;;;;;5053286;28;20203;-70
2021/12/19 09:56:33;;;;;;;21.30;9.53;;;;;;;;;;5045681;28;20241;-71
2021/12/19 09:59:08;;;;;;;24.47;7.07;;;;;;;;;;5063756;28;20759;-70
2021/12/19 10:01:36;;;;;;;8.77;4.70;;;;;;;;;;5047553;28;20317;-70
2021/12/19 10:04:04;;;;;;;8.47;4.53;;;;;;;;;;5059576;28;20280;-69
2021/12/19 10:06:32;;;;;;;6.80;4.07;;;;;;;;;;5059623;28;20241;-70
2021/12/19 10:09:18;;;;;;;5.97;3.60;;;;;;;;;;5064189;28;20224;-69
2021/12/19 10:14:37;;;;;;;9.67;4.20;;;;;;;;;;5030879;28;20235;-70
2021/12/19 10:17:06;;;;;;;7.97;4.57;;;;;;;;;;5051866;28;20228;-70
2021/12/19 10:19:51;;;;;;;11.50;4.53;;;;;;;;;;5051794;28;20289;-69
2021/12/19 10:22:31;;;;;;;10.40;4.43;;;;;;;;;;5051590;28;20239;-70
2021/12/19 10:25:20;;;;;;;9.60;5.37;;;;;;;;;;5052192;28;20319;-69
2021/12/19 10:27:52;;;;;;;7.00;4.47;;;;;;;;;;5051110;28;20231;-69
2021/12/19 10:30:49;;;;;;;19.43;5.90;;;;;;;;;;5051582;28;20627;-69
2021/12/19 10:33:25;;;;;;;11.00;5.27;;;;;;;;;;5051369;28;20244;-67
2021/12/19 10:36:04;;;;;;;7.90;4.30;;;;;;;;;;5052017;28;20227;-67
2021/12/19 10:38:31;;;;;;;9.47;4.40;;;;;;;;;;5051040;28;20223;-68
2021/12/19 10:41:00;;;;;;;8.47;3.63;;;;;;;;;;5051439;28;20501;-67
2021/12/19 10:43:33;;;;;;;11.67;4.87;;;;;;;;;;5071679;28;20602;-67
2021/12/19 10:46:03;;;;;;;8.30;4.20;;;;;;;;;;5075947;28;20231;-67
2021/12/19 10:48:37;;;;;;;14.23;5.13;;;;;;;;;;5075268;28;20246;-72
2021/12/19 10:51:08;;;;;;;13.40;5.67;;;;;;;;;;5076335;28;20231;-64
2021/12/19 10:53:43;;;;;;;9.90;4.23;;;;;;;;;;5074581;28;20231;-66
2021/12/19 10:56:16;;;;;;;11.10;4.60;;;;;;;;;;5074902;28;20237;-65
2021/12/19 10:58:58;;;;;;;15.00;7.53;;;;;;;;;;5075304;28;20776;-65
2021/12/19 11:01:31;;;;;;;15.43;6.07;;;;;;;;;;5075596;28;20223;-65
2021/12/19 11:04:03;;;;;;;9.27;4.63;;;;;;;;;;5075340;28;20226;-64
2021/12/19 11:06:34;;;;;;;7.77;5.20;;;;;;;;;;5075349;28;20932;-65
2021/12/19 11:09:14;;;;;;;8.37;3.90;;;;;;;;;;5075171;28;20327;-64
2021/12/19 11:11:54;;;;;;;9.43;3.87;;;;;;;;;;5069846;28;20232;-65
2021/12/19 11:14:25;;;;;;;10.37;3.90;;;;;;;;;;5054780;28;20299;-65
2021/12/19 11:16:56;;;;;;;3.67;2.33;;;;;;;;;;5055563;28;20238;-64
2021/12/19 11:19:24;;;;;;;4.10;2.57;;;;;;;;;;5054797;28;20220;-65
2021/12/19 11:22:13;;;;;;;5.67;2.77;;;;;;;;;;5055271;28;20239;-66
2021/12/19 11:24:40;;;;;;;10.73;4.80;;;;;;;;;;5054852;28;20233;-63
2021/12/19 11:27:08;;;;;;;9.23;4.20;;;;;;;;;;5054688;28;20224;-64
2021/12/19 11:29:36;;;;;;;9.47;3.30;;;;;;;;;;5053467;28;20726;-64
2021/12/19 11:32:06;;;;;;;6.80;2.93;;;;;;;;;;5054096;28;20235;-63
2021/12/19 11:35:01;;;;;;;3.27;2.60;;;;;;;;;;5053321;28;20282;-63
2021/12/19 11:37:52;;;;;;;12.37;5.07;;;;;;;;;;5054952;28;20228;-63
2021/12/19 11:40:20;;;;;;;7.33;4.03;;;;;;;;;;5052656;28;20380;-63
2021/12/19 11:42:49;;;;;;;5.10;3.50;;;;;;;;;;5067699;28;20606;-63
2021/12/19 11:45:22;;;;;;;11.20;5.33;;;;;;;;;;5073193;28;20314;-63
2021/12/19 11:47:56;;;;;;;9.80;5.33;;;;;;;;;;5074997;28;20219;-62
2021/12/19 11:50:29;;;;;;;6.47;3.50;;;;;;;;;;5074016;28;20330;-63
2021/12/19 11:53:26;;;;;;;6.93;3.67;;;;;;;;;;5074932;28;20247;-62
2021/12/19 11:55:58;;;;;;;7.73;4.57;;;;;;;;;;5073423;28;20223;-64
2021/12/19 11:58:28;;;;;;;14.23;4.87;;;;;;;;;;5074015;28;20220;-63
2021/12/19 12:01:07;;;;;;;10.53;4.00;;;;;;;;;;5074520;28;20231;-66
2021/12/19 12:03:47;;;;;;;9.27;3.67;;;;;;;;;;5073966;28;20227;-65
2021/12/19 12:06:17;;;;;;;6.93;3.77;;;;;;;;;;5074280;28;20226;-64
2021/12/19 12:09:11;;;;;;;5.30;3.00;;;;;;;;;;5074539;28;20223;-66
2021/12/19 12:11:53;;;;;;;3.57;2.60;;;;;;;;;;5061764;28;20306;-65
2021/12/19 12:14:34;;;;;;;10.40;3.40;;;;;;;;;;5073915;28;20640;-63
2021/12/19 12:17:11;;;;;;;8.33;3.80;;;;;;;;;;5074178;28;20238;-69
2021/12/19 12:19:51;;;;;;;10.03;4.40;;;;;;;;;;5072946;28;20226;-64
2021/12/19 12:25:08;;;;;;;8.90;4.83;;;;;;;;;;5073500;28;20293;-62
2021/12/19 12:27:44;;;;;;;9.63;3.57;;;;;;;;;;5074094;28;20314;-68
2021/12/19 12:30:31;;;;;;;12.13;5.67;;;;;;;;;;5073791;28;20623;-66
2021/12/19 12:33:01;;;;;;;8.67;4.10;;;;;;;;;;5073054;28;20235;-66
2021/12/19 12:35:31;;;;;;;6.20;3.50;;;;;;;;;;5072403;28;20235;-66
2021/12/19 12:37:59;;;;;;;7.43;3.17;;;;;;;;;;5074442;28;20254;-66
2021/12/19 12:40:44;;;;;;;8.30;3.80;;;;;;;;;;5072862;28;20251;-66
2021/12/19 12:43:17;;;;;;;6.83;3.73;;;;;;;;;;5055430;28;20322;-65
2021/12/19 12:46:07;;;;;;;8.10;3.97;;;;;;;;;;5053460;28;20232;-64
2021/12/19 12:48:54;;;;;;;7.27;3.40;;;;;;;;;;5052660;28;20223;-65
2021/12/19 12:51:43;;;;;;;6.90;2.77;;;;;;;;;;5052932;28;20227;-64
2021/12/19 12:54:21;;;;;;;7.87;3.43;;;;;;;;;;5053167;28;20232;-64
2021/12/19 12:56:51;;;;;;;3.87;2.13;;;;;;;;;;5053482;28;20219;-64
2021/12/19 12:59:28;;;;;;;5.70;2.50;;;;;;;;;;5053518;28;20224;-65
2021/12/19 13:02:11;;;;;;;9.60;3.00;;;;;;;;;;5053431;28;20219;-64
2021/12/19 13:04:41;;;;;;;7.50;4.03;;;;;;;;;;5053167;28;20232;-63
2021/12/19 13:07:10;;;;;;;4.90;2.50;;;;;;;;;;5052270;28;20231;-64
2021/12/19 13:09:43;;;;;;;7.83;3.80;;;;;;;;;;5052699;28;20215;-62
2021/12/19 13:12:20;;;;;;;9.20;4.03;;;;;;;;;;5052959;28;20278;-63
2021/12/19 13:15:00;;;;;;;4.60;2.40;;;;;;;;;;5052894;28;20722;-64
2021/12/19 13:17:28;;;;;;;7.37;3.20;;;;;;;;;;5053037;28;20223;-65
2021/12/19 13:20:08;;;;;;;6.43;3.43;;;;;;;;;;5052769;28;20248;-66
2021/12/19 13:22:40;;;;;;;9.53;4.23;;;;;;;;;;5053060;28;20228;-66
2021/12/19 13:25:25;;;;;;;9.90;3.67;;;;;;;;;;5052164;28;20228;-63
2021/12/19 13:27:55;;;;;;;7.70;3.40;;;;;;;;;;5053114;28;20231;-64
2021/12/19 13:30:25;;;;;;;5.93;3.43;;;;;;;;;;5050901;28;20228;-63
2021/12/19 13:32:55;;;;;;;4.57;2.87;;;;;;;;;;5052648;28;20664;-64
2021/12/19 13:35:37;;;;;;;8.43;3.50;;;;;;;;;;5052308;28;20223;-64
2021/12/19 13:38:09;;;;;;;7.03;3.27;;;;;;;;;;5052950;28;20227;-64
2021/12/19 13:40:45;;;;;;;6.93;2.90;;;;;;;;;;5051962;28;20278;-63
2021/12/19 13:43:21;;;;;;;13.73;5.23;;;;;;;;;;5069667;28;20318;-63
2021/12/19 13:45:55;;;;;;;6.67;2.87;;;;;;;;;;5072614;28;20585;-65
2021/12/19 13:48:24;;;;;;;5.37;2.53;;;;;;;;;;5071013;28;20553;-64
2021/12/19 13:50:59;;;;;;;8.93;3.97;;;;;;;;;;5071604;28;20235;-64
2021/12/19 13:53:28;;;;;;;5.03;3.03;;;;;;;;;;5072361;28;20277;-66
2021/12/19 13:56:02;;;;;;;4.57;3.33;;;;;;;;;;5071701;28;20235;-62
2021/12/19 13:58:32;;;;;;;10.50;4.00;;;;;;;;;;5071840;28;20232;-63
2021/12/19 14:01:10;;;;;;;7.00;3.80;;;;;;;;;;5071655;28;20280;-62
2021/12/19 14:03:54;;;;;;;7.63;3.27;;;;;;;;;;5072428;28;20233;-64
2021/12/19 14:06:25;;;;;;;3.83;2.40;;;;;;;;;;5071689;28;20230;-63
2021/12/19 14:09:00;;;;;;;7.20;3.00;;;;;;;;;;5071715;28;20222;-64
2021/12/19 14:11:28;;;;;;;9.60;3.43;;;;;;;;;;5068830;28;20219;-63
2021/12/19 14:14:11;;;;;;;5.13;3.53;;;;;;;;;;5052296;28;20327;-63
2021/12/19 14:16:44;;;;;;;6.20;2.93;;;;;;;;;;5051724;28;20593;-64
2021/12/19 14:19:23;;;;;;;12.90;4.73;;;;;;;;;;5051897;28;20227;-64
2021/12/19 14:21:56;;;;;;;4.20;2.83;;;;;;;;;;5050672;28;20228;-65
2021/12/19 14:24:38;;;;;;;9.20;3.97;;;;;;;;;;5051281;28;20231;-65
2021/12/19 14:27:21;;;;;;;6.60;2.70;;;;;;;;;;5051841;28;20232;-65
2021/12/19 14:29:59;;;;;;;5.73;2.77;;;;;;;;;;5052320;28;20223;-64
2021/12/19 14:32:43;;;;;;;13.20;3.37;;;;;;;;;;5049965;28;20766;-65
2021/12/19 14:35:21;;;;;;;10.47;4.57;;;;;;;;;;5052000;28;20262;-65
2021/12/19 14:37:54;;;;;;;9.77;3.43;;;;;;;;;;5051785;28;20224;-65
2021/12/19 14:40:23;;;;;;;6.47;3.27;;;;;;;;;;5050942;28;20224;-62
2021/12/19 14:43:00;;;;;;;4.77;2.10;;;;;;;;;;5065604;28;20641;-60
2021/12/19 14:45:32;;;;;;;6.20;3.03;;;;;;;;;;5071508;28;20963;-63
2021/12/19 14:48:03;;;;;;;5.70;2.60;;;;;;;;;;5055015;28;20232;-61
2021/12/19 14:50:35;;;;;;;6.27;2.93;;;;;;;;;;5051445;28;20293;-60
2021/12/19 14:53:13;;;;;;;3.63;2.10;;;;;;;;;;5050757;28;20699;-62
2021/12/19 14:55:49;;;;;;;10.17;3.57;;;;;;;;;;5051950;28;20263;-66
2021/12/19 14:58:17;;;;;;;6.57;3.03;;;;;;;;;;5051529;28;20233;-65
2021/12/19 15:00:54;;;;;;;6.67;3.27;;;;;;;;;;5050742;28;20216;-67
2021/12/19 15:03:21;;;;;;;6.77;2.80;;;;;;;;;;5051286;28;20250;-66
2021/12/19 15:05:49;;;;;;;8.30;3.40;;;;;;;;;;5051605;28;20567;-63
2021/12/19 15:08:22;;;;;;;26.80;12.83;;;;;;;;;;5050915;28;20319;-64
2021/12/19 15:10:50;;;;;;;7.77;4.53;;;;;;;;;;5051814;28;20627;-66
2021/12/19 15:13:17;;;;;;;14.50;6.77;;;;;;;;;;5068936;28;20238;-65
2021/12/19 15:15:45;;;;;;;11.80;4.53;;;;;;;;;;5071859;28;20224;-63
2021/12/19 15:18:15;;;;;;;12.03;5.03;;;;;;;;;;5070979;28;20280;-65
2021/12/19 15:20:43;;;;;;;11.23;5.73;;;;;;;;;;5053772;28;20721;-64
2021/12/19 15:23:10;;;;;;;19.03;8.53;;;;;;;;;;5070567;28;20239;-64
2021/12/19 15:25:38;;;;;;;15.87;5.57;;;;;;;;;;5060519;28;20691;-66
2021/12/19 15:28:06;;;;;;;14.80;6.27;;;;;;;;;;5031203;28;20233;-65
2021/12/19 15:30:33;;;;;;;9.40;4.03;;;;;;;;;;5032372;28;20220;-65
2021/12/19 15:33:01;;;;;;;12.93;5.60;;;;;;;;;;5035907;28;20240;-67
2021/12/19 15:35:31;;;;;;;4.27;2.90;;;;;;;;;;5051088;28;20228;-65
2021/12/19 15:37:59;;;;;;;8.97;3.77;;;;;;;;;;5032730;28;20406;-66
2021/12/19 15:40:32;;;;;;;7.33;2.97;;;;;;;;;;5034306;28;20697;-66
2021/12/19 15:42:59;;;;;;;6.50;3.23;;;;;;;;;;5043704;28;20236;-66
2021/12/19 15:45:28;;;;;;;5.73;2.97;;;;;;;;;;5034247;28;20636;-67
2021/12/19 15:47:55;;;;;;;7.60;2.33;;;;;;;;;;5034233;28;20255;-67
2021/12/19 15:50:23;;;;;;;5.70;2.33;;;;;;;;;;5032707;28;20240;-67
2021/12/19 15:52:54;;;;;;;3.63;2.20;;;;;;;;;;5033731;28;20734;-67
2021/12/19 15:55:22;;;;;;;3.73;1.77;;;;;;;;;;5034525;28;20224;-67
2021/12/19 15:57:49;;;;;;;6.87;2.20;;;;;;;;;;5034230;28;20320;-66
2021/12/19 16:00:22;;;;;;;2.40;1.60;;;;;;;;;;5034335;28;20307;-66
2021/12/19 16:02:50;;;;;;;5.80;2.13;;;;;;;;;;5034215;28;20221;-66
2021/12/19 16:05:20;;;;;;;3.90;1.50;;;;;;;;;;5034402;28;20231;-66
2021/12/19 16:07:49;;;;;;;1.47;0.80;;;;;;;;;;5033983;28;20228;-66
2021/12/19 16:10:17;;;;;;;0.70;0.70;;;;;;;;;;5033922;28;20220;-66
2021/12/19 16:12:45;;;;;;;2.30;0.93;;;;;;;;;;5043450;28;20643;-65
2021/12/19 16:15:14;;;;;;;2.07;0.80;;;;;;;;;;5051789;28;20307;-67